createdAt,value
2019-01-05T00:02:58.662Z,76.60
2019-01-05T00:05:55.610Z,76.50
2019-01-05T00:08:56.178Z,76.50
2019-01-05T00:11:44.193Z,76.80
2019-01-05T00:14:31.645Z,76.10
2019-01-05T00:17:22.797Z,76.40
2019-01-05T00:20:12.170Z,76.10
2019-01-05T00:22:59.061Z,76.30
2019-01-05T00:25:46.034Z,76.10
2019-01-05T00:28:34.202Z,77.70
2019-01-05T00:31:18.733Z,77.50
2019-01-05T00:34:14.490Z,78.70
2019-01-05T00:37:02.107Z,77.40
2019-01-05T00:39:51.210Z,77.80
2019-01-05T00:42:52.306Z,77.70
2019-01-05T00:45:43.585Z,77.50
2019-01-05T00:48:47.542Z,78.10
2019-01-05T00:51:36.549Z,78.90
2019-01-05T00:54:22.874Z,78.20
2019-01-05T00:57:17.763Z,79.40
2019-01-05T01:00:25.028Z,79.60
2019-01-05T01:03:19.161Z,78.40
2019-01-05T01:06:11.661Z,79.80
2019-01-05T01:08:57.998Z,80.50
2019-01-05T01:11:45.330Z,79.30
2019-01-05T01:14:32.445Z,79.70
2019-01-05T01:17:19.680Z,81.30
2019-01-05T01:20:06.606Z,80.80
2019-01-05T01:22:46.317Z,81.30
2019-01-05T01:25:34.411Z,80.70
2019-01-05T01:28:34.964Z,80.80
2019-01-05T01:31:22.216Z,81.30
2019-01-05T01:34:09.150Z,81.60
2019-01-05T01:36:58.241Z,81.50
2019-01-05T01:39:56.418Z,81.60
2019-01-05T01:42:43.990Z,81.00
2019-01-05T01:45:32.786Z,80.50
2019-01-05T01:48:20.451Z,80.60
2019-01-05T01:51:08.594Z,80.50
2019-01-05T01:54:06.890Z,80.10
2019-01-05T01:57:10.499Z,80.70
2019-01-05T02:00:02.882Z,80.30
2019-01-05T02:02:51.018Z,80.20
2019-01-05T02:05:41.806Z,81.00
2019-01-05T02:08:37.037Z,80.30
2019-01-05T02:11:31.309Z,80.00
2019-01-05T02:14:19.427Z,79.70
2019-01-05T02:17:32.454Z,80.00
2019-01-05T02:20:41.941Z,79.00
2019-01-05T02:24:02.179Z,78.90
2019-01-05T02:27:23.259Z,80.10
2019-01-05T02:30:55.311Z,80.10
2019-01-05T02:34:33.314Z,81.00
2019-01-05T02:38:05.145Z,80.60
2019-01-05T02:41:51.499Z,81.00
2019-01-05T02:45:17.822Z,81.50
2019-01-05T02:49:00.107Z,81.70
2019-01-05T02:52:16.898Z,81.00
2019-01-05T02:55:37.574Z,81.00
2019-01-05T02:59:02.065Z,81.70
2019-01-05T03:02:26.003Z,80.60
2019-01-05T03:05:46.234Z,80.70
2019-01-05T03:09:29.241Z,81.40
2019-01-05T03:13:09.561Z,81.40
2019-01-05T03:16:21.922Z,82.60
2019-01-05T03:19:54.698Z,82.00
2019-01-05T03:23:30.461Z,81.70
2019-01-05T03:27:04.868Z,82.40
2019-01-05T03:30:24.018Z,81.60
2019-01-05T03:33:45.878Z,81.30
2019-01-05T03:37:19.967Z,80.80
2019-01-05T03:40:54.194Z,80.80
2019-01-05T03:44:34.409Z,80.30
2019-01-05T03:47:57.574Z,80.50
2019-01-05T03:51:31.857Z,79.70
2019-01-05T03:54:54.025Z,80.00
2019-01-05T03:58:38.805Z,80.60
2019-01-05T04:02:25.120Z,80.60
2019-01-05T04:05:54.486Z,80.90
2019-01-05T04:09:07.858Z,80.90
2019-01-05T04:12:32.711Z,80.80
2019-01-05T04:16:09.905Z,80.70
2019-01-05T04:19:42.605Z,80.90
2019-01-05T04:22:57.310Z,80.30
2019-01-05T04:26:37.701Z,80.40
2019-01-05T04:29:54.624Z,80.00
2019-01-05T04:33:26.570Z,79.80
2019-01-05T04:36:43.869Z,79.50
2019-01-05T04:40:13.871Z,79.00
2019-01-05T04:43:41.984Z,78.80
2019-01-05T04:47:17.483Z,79.20
2019-01-05T04:50:21.814Z,79.10
2019-01-05T04:53:50.020Z,78.70
2019-01-05T04:57:27.994Z,78.50
2019-01-05T05:00:57.679Z,78.30
2019-01-05T05:04:37.729Z,78.20
2019-01-05T05:08:06.997Z,78.20
2019-01-05T05:11:53.279Z,78.40
2019-01-05T05:15:29.638Z,78.40
2019-01-05T05:18:38.221Z,77.80
2019-01-05T05:21:57.058Z,77.30
2019-01-05T05:25:29.991Z,77.50
2019-01-05T05:29:01.150Z,77.70
2019-01-05T05:32:27.109Z,77.70
2019-01-05T05:36:00.778Z,77.40
2019-01-05T05:39:39.598Z,77.50
2019-01-05T05:43:03.824Z,77.70
2019-01-05T05:46:38.922Z,77.70
2019-01-05T05:50:25.595Z,76.90
2019-01-05T05:53:49.778Z,76.90
2019-01-05T05:57:17.882Z,77.10
2019-01-05T06:01:06.982Z,75.90
2019-01-05T06:04:45.253Z,75.50
2019-01-05T06:08:33.165Z,75.00
2019-01-05T06:12:00.711Z,73.70
2019-01-05T06:15:37.676Z,73.80
2019-01-05T06:18:52.458Z,72.90
2019-01-05T06:22:19.086Z,72.80
2019-01-05T06:25:56.524Z,72.70
2019-01-05T06:29:32.877Z,73.80
2019-01-05T06:33:19.129Z,73.80
2019-01-05T06:36:42.237Z,74.10
2019-01-05T06:40:08.185Z,74.00
2019-01-05T06:43:44.767Z,74.40
2019-01-05T06:47:15.946Z,74.00
2019-01-05T06:50:54.680Z,72.90
2019-01-05T06:54:36.667Z,73.30
2019-01-05T06:58:14.389Z,72.20
2019-01-05T07:01:56.763Z,73.40
2019-01-05T07:05:25.606Z,72.50
2019-01-05T07:09:20.701Z,72.60
2019-01-05T07:12:34.241Z,72.70
2019-01-05T07:16:13.748Z,72.50
2019-01-05T07:19:45.235Z,72.40
2019-01-05T07:23:23.427Z,72.50
2019-01-05T07:26:54.579Z,72.40
2019-01-05T07:30:28.740Z,72.30
2019-01-05T07:34:00.208Z,72.10
2019-01-05T07:37:13.306Z,71.90
2019-01-05T07:40:49.430Z,70.60
2019-01-05T07:44:14.421Z,70.70
2019-01-05T07:47:41.580Z,70.40
2019-01-05T07:51:20.567Z,70.30
2019-01-05T07:55:09.703Z,70.40
2019-01-05T07:58:34.097Z,69.70
2019-01-05T08:02:14.386Z,71.00
2019-01-05T08:05:44.621Z,71.10
2019-01-05T08:09:19.166Z,70.30
2019-01-05T08:12:56.349Z,71.00
2019-01-05T08:16:19.453Z,70.80
2019-01-05T08:20:02.861Z,70.60
2019-01-05T08:23:41.626Z,71.20
2019-01-05T08:27:03.402Z,71.80
2019-01-05T08:30:40.843Z,71.10
2019-01-05T08:34:18.761Z,71.00
2019-01-05T08:37:54.700Z,71.70
2019-01-05T08:41:11.501Z,71.10
2019-01-05T08:44:56.207Z,71.50
2019-01-05T08:48:22.630Z,71.60
2019-01-05T08:51:54.361Z,71.10
2019-01-05T08:55:17.174Z,71.70
2019-01-05T08:58:53.261Z,71.50
2019-01-05T09:02:30.364Z,71.40
2019-01-05T09:05:55.164Z,71.30
2019-01-05T09:09:38.116Z,71.10
2019-01-05T09:13:11.866Z,71.50
2019-01-05T09:16:24.262Z,71.60
2019-01-05T09:19:58.174Z,71.40
2019-01-05T09:23:47.693Z,71.30
2019-01-05T09:27:20.702Z,71.90
2019-01-05T09:31:10.947Z,72.20
2019-01-05T09:34:49.686Z,71.70
2019-01-05T09:38:29.436Z,72.10
2019-01-05T09:41:54.113Z,71.80
2019-01-05T09:45:45.448Z,71.60
2019-01-05T09:49:51.533Z,71.20
2019-01-05T09:53:19.959Z,71.80
2019-01-05T09:56:44.432Z,71.90
2019-01-05T10:00:13.781Z,72.00
2019-01-05T10:03:58.691Z,71.90
2019-01-05T10:07:20.991Z,71.80
2019-01-05T10:10:41.562Z,72.20
2019-01-05T10:13:56.251Z,71.80
2019-01-05T10:17:26.948Z,72.60
2019-01-05T10:21:07.229Z,72.20
2019-01-05T10:24:43.157Z,72.60
2019-01-05T10:28:06.841Z,72.70
2019-01-05T10:31:49.790Z,73.20
2019-01-05T10:35:29.709Z,73.40
2019-01-05T10:38:49.607Z,73.50
2019-01-05T10:42:45.394Z,73.40
2019-01-05T10:46:13.502Z,73.40
2019-01-05T10:49:48.135Z,73.80
2019-01-05T10:53:03.931Z,74.50
2019-01-05T10:56:49.929Z,73.80
2019-01-05T11:00:21.050Z,73.80
2019-01-05T11:03:55.893Z,73.80
2019-01-05T11:07:23.784Z,73.70
2019-01-05T11:11:23.185Z,72.60
2019-01-05T11:14:47.196Z,72.50
2019-01-05T11:18:31.956Z,72.50
2019-01-05T11:21:59.948Z,72.40
2019-01-05T11:25:21.335Z,72.20
2019-01-05T11:28:45.737Z,72.30
2019-01-05T11:32:22.122Z,72.50
2019-01-05T11:35:59.319Z,73.00
2019-01-05T11:39:15.408Z,73.70
2019-01-05T11:42:28.695Z,73.90
2019-01-05T11:46:11.069Z,74.00
2019-01-05T11:49:58.434Z,74.40
2019-01-05T11:53:18.363Z,74.40
2019-01-05T11:56:44.717Z,74.60
2019-01-05T12:00:31.578Z,74.60
2019-01-05T12:03:49.982Z,74.60
2019-01-05T12:07:25.826Z,74.70
2019-01-05T12:10:50.513Z,75.30
2019-01-05T12:14:26.845Z,75.00
2019-01-05T12:17:58.744Z,75.20
2019-01-05T12:21:29.525Z,75.10
2019-01-05T12:25:06.514Z,74.90
2019-01-05T12:28:30.059Z,75.10
2019-01-05T12:32:06.019Z,74.80
2019-01-05T12:35:44.609Z,74.80
2019-01-05T12:39:07.579Z,75.10
2019-01-05T12:42:44.884Z,75.50
2019-01-05T12:46:27.923Z,76.10
2019-01-05T12:50:00.948Z,76.40
2019-01-05T12:53:24.337Z,76.30
2019-01-05T12:56:57.148Z,76.80
2019-01-05T13:00:09.267Z,76.90
2019-01-05T13:03:52.350Z,76.90
2019-01-05T13:07:24.810Z,76.80
2019-01-05T13:10:34.658Z,76.40
2019-01-05T13:13:58.849Z,76.10
2019-01-05T13:17:23.110Z,75.80
2019-01-05T13:20:50.695Z,75.20
2019-01-05T13:24:20.448Z,73.80
2019-01-05T13:28:13.641Z,73.50
2019-01-05T13:32:17.628Z,71.80
2019-01-05T13:36:01.981Z,71.60
2019-01-05T13:39:41.214Z,71.90
2019-01-05T13:43:05.419Z,72.00
2019-01-05T13:46:30.775Z,71.90
2019-01-05T13:49:52.373Z,71.10
2019-01-05T13:53:27.607Z,72.10
2019-01-05T13:56:26.193Z,72.60
2019-01-05T13:59:23.570Z,71.90
2019-01-05T14:02:07.583Z,72.50
2019-01-05T14:04:54.229Z,72.80
2019-01-05T14:08:00.748Z,71.90
2019-01-05T14:10:51.855Z,72.70
2019-01-05T14:13:38.558Z,72.20
2019-01-05T14:16:25.377Z,71.60
2019-01-05T14:19:22.352Z,71.70
2019-01-05T14:22:14.450Z,71.80
2019-01-05T14:25:10.639Z,71.50
2019-01-05T14:28:01.243Z,71.50
2019-01-05T14:30:53.453Z,70.30
2019-01-05T14:33:40.468Z,71.00
2019-01-05T14:36:27.236Z,70.60
2019-01-05T14:39:14.675Z,70.50
2019-01-05T14:41:59.154Z,70.90
2019-01-05T14:45:05.434Z,70.30
2019-01-05T14:47:59.749Z,69.70
2019-01-05T14:50:43.342Z,69.90
2019-01-05T14:53:30.390Z,70.40
2019-01-05T14:56:23.728Z,69.60
2019-01-05T14:59:11.761Z,69.40
2019-01-05T15:02:09.188Z,69.90
2019-01-05T15:05:03.731Z,70.00
2019-01-05T15:07:50.740Z,69.60
2019-01-05T15:10:37.793Z,70.10
2019-01-05T15:13:28.855Z,70.10
2019-01-05T15:16:32.341Z,70.10
2019-01-05T15:19:19.270Z,70.20
2019-01-05T15:22:13.585Z,70.10
2019-01-05T15:24:55.056Z,70.00
2019-01-05T15:27:41.799Z,70.20
2019-01-05T15:30:36.037Z,70.30
2019-01-05T15:33:22.071Z,70.70
2019-01-05T15:36:12.150Z,70.80
2019-01-05T15:38:59.082Z,70.90
2019-01-05T15:41:50.663Z,70.60
2019-01-05T15:44:50.813Z,71.20
2019-01-05T15:47:44.851Z,71.20
2019-01-05T15:50:32.364Z,71.10
2019-01-05T15:53:24.342Z,70.90
2019-01-05T15:56:11.333Z,71.10
2019-01-05T15:58:58.249Z,71.40
2019-01-05T16:01:40.494Z,71.60
2019-01-05T16:04:43.655Z,71.70
2019-01-05T16:07:30.586Z,72.00
2019-01-05T16:10:18.278Z,71.70
2019-01-05T16:13:05.270Z,71.70
2019-01-05T16:15:52.200Z,71.70
2019-01-05T16:18:44.077Z,71.30
2019-01-05T16:21:31.675Z,71.70
2019-01-05T16:24:18.368Z,71.90
2019-01-05T16:27:10.865Z,72.40
2019-01-05T16:29:58.438Z,72.50
2019-01-05T16:32:57.541Z,72.50
2019-01-05T16:35:42.320Z,72.60
2019-01-05T16:38:29.213Z,72.60
2019-01-05T16:41:26.113Z,72.60
2019-01-05T16:44:24.984Z,72.60
2019-01-05T16:47:22.371Z,72.50
2019-01-05T16:50:10.330Z,72.40
2019-01-05T16:52:56.082Z,72.50
2019-01-05T16:55:42.622Z,72.50
2019-01-05T16:58:26.012Z,72.50
2019-01-05T17:01:24.479Z,72.30
2019-01-05T17:04:11.299Z,72.40
2019-01-05T17:07:12.351Z,72.10
2019-01-05T17:10:18.704Z,71.90
2019-01-05T17:13:05.731Z,72.10
2019-01-05T17:15:59.912Z,72.30
2019-01-05T17:18:53.787Z,72.20
2019-01-05T17:21:45.637Z,72.40
2019-01-05T17:24:33.748Z,72.70
2019-01-05T17:27:20.878Z,72.50
2019-01-05T17:30:11.993Z,72.70
2019-01-05T17:32:58.949Z,72.00
2019-01-05T17:35:50.533Z,71.90
2019-01-05T17:38:47.335Z,71.90
2019-01-05T17:41:34.182Z,71.90
2019-01-05T17:44:31.381Z,71.30
2019-01-05T17:47:18.523Z,71.70
2019-01-05T17:50:12.693Z,71.70
2019-01-05T17:53:18.850Z,72.20
2019-01-05T17:56:05.765Z,72.40
2019-01-05T17:58:56.660Z,72.30
2019-01-05T18:02:00.029Z,72.50
2019-01-05T18:04:47.389Z,72.40
2019-01-05T18:07:37.953Z,72.30
2019-01-05T18:10:26.607Z,72.20
2019-01-05T18:13:02.993Z,72.60
2019-01-05T18:15:59.992Z,72.90
2019-01-05T18:18:54.438Z,73.40
2019-01-05T18:21:42.059Z,73.80
2019-01-05T18:24:39.126Z,74.60
2019-01-05T18:27:30.126Z,74.50
2019-01-05T18:30:33.330Z,73.80
2019-01-05T18:33:31.018Z,73.70
2019-01-05T18:36:17.934Z,73.60
2019-01-05T18:39:15.398Z,73.30
2019-01-05T18:42:09.566Z,72.90
2019-01-05T18:44:56.350Z,72.50
2019-01-05T18:47:47.433Z,72.20
2019-01-05T18:50:50.625Z,72.00
2019-01-05T18:53:41.674Z,72.10
2019-01-05T18:56:41.925Z,71.90
2019-01-05T18:59:45.491Z,71.90
2019-01-05T19:02:42.525Z,72.20
2019-01-05T19:05:29.518Z,71.50
2019-01-05T19:08:16.494Z,71.70
2019-01-05T19:11:15.668Z,71.40
2019-01-05T19:14:11.917Z,71.50
2019-01-05T19:17:09.087Z,71.40
2019-01-05T19:20:00.063Z,70.80
2019-01-05T19:22:51.005Z,70.60
2019-01-05T19:25:37.723Z,71.30
2019-01-05T19:28:31.107Z,70.90
2019-01-05T19:31:28.842Z,71.10
2019-01-05T19:34:23.753Z,70.80
2019-01-05T19:37:15.001Z,71.20
2019-01-05T19:40:05.919Z,71.10
2019-01-05T19:42:48.989Z,71.50
2019-01-05T19:45:26.509Z,71.50
2019-01-05T19:48:15.686Z,71.60
2019-01-05T19:51:06.845Z,71.20
2019-01-05T19:54:01.189Z,71.00
2019-01-05T19:56:50.293Z,70.80
2019-01-05T19:59:35.806Z,70.90
2019-01-05T20:02:22.019Z,70.70
2019-01-05T20:05:25.469Z,71.60
2019-01-05T20:08:16.629Z,71.90
2019-01-05T20:11:13.625Z,72.30
2019-01-05T20:14:00.379Z,72.70
2019-01-05T20:16:59.231Z,72.60
2019-01-05T20:19:46.108Z,72.70
2019-01-05T20:22:33.725Z,72.50
2019-01-05T20:25:30.965Z,72.70
2019-01-05T20:28:18.077Z,72.40
2019-01-05T20:31:04.875Z,72.30
2019-01-05T20:34:03.906Z,72.20
2019-01-05T20:37:11.611Z,72.10
2019-01-05T20:40:03.692Z,72.20
2019-01-05T20:43:23.431Z,72.20
2019-01-05T20:46:20.738Z,72.30
2019-01-05T20:49:48.098Z,71.70
2019-01-05T20:52:48.369Z,71.80
2019-01-05T20:55:38.347Z,71.70
2019-01-05T20:58:29.763Z,71.60
2019-01-05T21:01:20.636Z,71.90
2019-01-05T21:04:13.886Z,72.10
2019-01-05T21:06:55.890Z,72.50
2019-01-05T21:10:17.626Z,72.80
2019-01-05T21:13:04.847Z,73.40
2019-01-05T21:16:31.911Z,73.50
2019-01-05T21:19:29.864Z,73.60
2019-01-05T21:22:24.225Z,74.00
2019-01-05T21:25:11.465Z,73.70
2019-01-05T21:28:40.913Z,73.90
2019-01-05T21:31:22.822Z,73.60
2019-01-05T21:34:31.046Z,73.40
2019-01-05T21:37:19.521Z,73.50
2019-01-05T21:40:37.655Z,73.30
2019-01-05T21:43:26.666Z,73.20
2019-01-05T21:46:28.533Z,73.30
2019-01-05T21:49:25.940Z,73.90
2019-01-05T21:52:12.714Z,73.50
2019-01-05T21:55:11.626Z,73.70
2019-01-05T21:57:59.921Z,74.10
2019-01-05T22:00:45.547Z,74.70
2019-01-05T22:03:51.683Z,74.90
2019-01-05T22:06:36.357Z,74.80
2019-01-05T22:09:28.285Z,74.90
2019-01-05T22:12:08.991Z,74.70
2019-01-05T22:15:27.009Z,75.00
2019-01-05T22:18:23.109Z,74.70
2019-01-05T22:21:30.034Z,74.60
2019-01-05T22:24:38.804Z,74.70
2019-01-05T22:27:28.138Z,74.50
2019-01-05T22:30:15.303Z,74.50
2019-01-05T22:33:02.213Z,74.30
2019-01-05T22:35:59.548Z,74.00
2019-01-05T22:38:40.240Z,74.10
2019-01-05T22:41:35.819Z,74.10
2019-01-05T22:44:24.213Z,74.40
2019-01-05T22:47:11.274Z,74.70
2019-01-05T22:50:14.629Z,74.90
2019-01-05T22:53:18.498Z,75.00
2019-01-05T22:55:59.430Z,74.80
2019-01-05T22:58:50.484Z,74.90
2019-01-05T23:01:56.975Z,74.90
2019-01-05T23:04:44.779Z,74.60
2019-01-05T23:07:31.769Z,74.90
2019-01-05T23:10:18.445Z,74.90
2019-01-05T23:13:20.647Z,74.50
2019-01-05T23:16:12.633Z,74.60
2019-01-05T23:18:55.966Z,74.70
2019-01-05T23:21:42.917Z,74.50
2019-01-05T23:24:29.927Z,74.50
2019-01-05T23:27:15.820Z,74.50
2019-01-05T23:30:13.621Z,74.60
2019-01-05T23:32:54.963Z,74.80
2019-01-05T23:35:55.325Z,74.80
2019-01-05T23:38:50.039Z,74.80
2019-01-05T23:41:34.318Z,75.00
2019-01-05T23:44:21.265Z,74.60
2019-01-05T23:47:08.235Z,74.40
2019-01-05T23:49:55.090Z,74.40
2019-01-05T23:52:46.488Z,74.10
2019-01-05T23:55:37.503Z,74.10
2019-01-05T23:58:46.520Z,74.00
